sensor_id;sensor_type;location;lat;lon;timestamp;P1;durP1;ratioP1;P2;durP2;ratioP2
40635;SDS011;26642;55.766;37.828;2022-11-20T00:03:47;7.18;;;4.63;;
40635;SDS011;26642;55.766;37.828;2022-11-20T00:06:14;7.10;;;4.55;;
40635;SDS011;26642;55.766;37.828;2022-11-20T00:08:41;7.63;;;4.72;;
40635;SDS011;26642;55.766;37.828;2022-11-20T00:11:08;8.50;;;4.90;;
40635;SDS011;26642;55.766;37.828;2022-11-20T00:13:39;5.90;;;4.13;;
40635;SDS011;26642;55.766;37.828;2022-11-20T00:16:06;7.90;;;4.82;;
40635;SDS011;26642;55.766;37.828;2022-11-20T00:18:34;7.05;;;4.65;;
40635;SDS011;26642;55.766;37.828;2022-11-20T00:21:07;6.47;;;4.63;;
40635;SDS011;26642;55.766;37.828;2022-11-20T00:23:36;5.63;;;4.38;;
40635;SDS011;26642;55.766;37.828;2022-11-20T00:26:03;6.75;;;4.50;;
40635;SDS011;26642;55.766;37.828;2022-11-20T00:28:30;6.20;;;4.43;;
40635;SDS011;26642;55.766;37.828;2022-11-20T00:31:03;6.40;;;4.70;;
40635;SDS011;26642;55.766;37.828;2022-11-20T00:33:31;6.57;;;4.28;;
40635;SDS011;26642;55.766;37.828;2022-11-20T00:36:00;5.70;;;4.10;;
40635;SDS011;26642;55.766;37.828;2022-11-20T00:38:34;5.78;;;3.83;;
40635;SDS011;26642;55.766;37.828;2022-11-20T00:41:01;5.85;;;4.22;;
40635;SDS011;26642;55.766;37.828;2022-11-20T00:43:29;4.93;;;4.20;;
40635;SDS011;26642;55.766;37.828;2022-11-20T00:45:58;5.30;;;4.00;;
40635;SDS011;26642;55.766;37.828;2022-11-20T00:48:25;5.03;;;4.22;;
40635;SDS011;26642;55.766;37.828;2022-11-20T00:50:52;5.45;;;4.20;;
40635;SDS011;26642;55.766;37.828;2022-11-20T00:53:18;6.28;;;4.65;;
40635;SDS011;26642;55.766;37.828;2022-11-20T00:55:58;6.25;;;4.55;;
40635;SDS011;26642;55.766;37.828;2022-11-20T00:58:28;6.97;;;4.43;;
40635;SDS011;26642;55.766;37.828;2022-11-20T01:01:02;5.93;;;4.30;;
40635;SDS011;26642;55.766;37.828;2022-11-20T01:03:33;5.72;;;4.50;;
40635;SDS011;26642;55.766;37.828;2022-11-20T01:06:04;5.68;;;3.95;;
40635;SDS011;26642;55.766;37.828;2022-11-20T01:08:33;6.25;;;4.63;;
40635;SDS011;26642;55.766;37.828;2022-11-20T01:11:05;5.72;;;4.43;;
40635;SDS011;26642;55.766;37.828;2022-11-20T01:13:35;5.70;;;4.35;;
40635;SDS011;26642;55.766;37.828;2022-11-20T01:18:41;5.68;;;4.07;;
40635;SDS011;26642;55.766;37.828;2022-11-20T01:21:13;4.85;;;3.65;;
40635;SDS011;26642;55.766;37.828;2022-11-20T01:23:41;5.32;;;3.95;;
40635;SDS011;26642;55.766;37.828;2022-11-20T01:26:09;5.07;;;3.45;;
40635;SDS011;26642;55.766;37.828;2022-11-20T01:28:37;6.30;;;4.28;;
40635;SDS011;26642;55.766;37.828;2022-11-20T01:31:17;4.45;;;3.60;;
40635;SDS011;26642;55.766;37.828;2022-11-20T01:33:45;5.93;;;4.03;;
40635;SDS011;26642;55.766;37.828;2022-11-20T01:36:13;4.40;;;3.83;;
40635;SDS011;26642;55.766;37.828;2022-11-20T01:38:40;6.25;;;4.45;;
40635;SDS011;26642;55.766;37.828;2022-11-20T01:41:06;4.47;;;3.20;;
40635;SDS011;26642;55.766;37.828;2022-11-20T01:43:33;4.50;;;3.58;;
40635;SDS011;26642;55.766;37.828;2022-11-20T01:48:45;4.28;;;3.53;;
40635;SDS011;26642;55.766;37.828;2022-11-20T01:51:19;4.55;;;4.00;;
40635;SDS011;26642;55.766;37.828;2022-11-20T01:53:54;5.13;;;3.40;;
40635;SDS011;26642;55.766;37.828;2022-11-20T01:56:22;5.05;;;3.95;;
40635;SDS011;26642;55.766;37.828;2022-11-20T01:58:51;6.07;;;3.85;;
40635;SDS011;26642;55.766;37.828;2022-11-20T02:01:23;6.20;;;3.88;;
40635;SDS011;26642;55.766;37.828;2022-11-20T02:03:49;5.50;;;3.80;;
40635;SDS011;26642;55.766;37.828;2022-11-20T02:07:01;5.13;;;3.60;;
40635;SDS011;26642;55.766;37.828;2022-11-20T02:09:05;5.55;;;3.72;;
40635;SDS011;26642;55.766;37.828;2022-11-20T02:11:31;6.00;;;3.45;;
40635;SDS011;26642;55.766;37.828;2022-11-20T02:13:57;5.97;;;4.10;;
40635;SDS011;26642;55.766;37.828;2022-11-20T02:16:25;5.38;;;4.20;;
40635;SDS011;26642;55.766;37.828;2022-11-20T02:18:54;5.82;;;3.47;;
40635;SDS011;26642;55.766;37.828;2022-11-20T02:24:00;6.25;;;3.80;;
40635;SDS011;26642;55.766;37.828;2022-11-20T02:26:28;5.85;;;3.95;;
40635;SDS011;26642;55.766;37.828;2022-11-20T02:28:56;5.75;;;4.35;;
40635;SDS011;26642;55.766;37.828;2022-11-20T02:31:24;5.03;;;3.88;;
40635;SDS011;26642;55.766;37.828;2022-11-20T02:33:56;5.22;;;3.83;;
40635;SDS011;26642;55.766;37.828;2022-11-20T02:36:23;5.88;;;4.20;;
40635;SDS011;26642;55.766;37.828;2022-11-20T02:38:52;6.00;;;4.00;;
40635;SDS011;26642;55.766;37.828;2022-11-20T02:41:18;7.25;;;4.00;;
40635;SDS011;26642;55.766;37.828;2022-11-20T02:43:44;7.15;;;3.83;;
40635;SDS011;26642;55.766;37.828;2022-11-20T02:46:10;4.88;;;3.42;;
40635;SDS011;26642;55.766;37.828;2022-11-20T02:48:36;4.82;;;3.58;;
40635;SDS011;26642;55.766;37.828;2022-11-20T02:51:02;4.93;;;3.50;;
40635;SDS011;26642;55.766;37.828;2022-11-20T02:53:28;5.43;;;3.70;;
40635;SDS011;26642;55.766;37.828;2022-11-20T02:55:54;5.90;;;3.97;;
40635;SDS011;26642;55.766;37.828;2022-11-20T02:58:20;6.05;;;4.00;;
40635;SDS011;26642;55.766;37.828;2022-11-20T03:00:46;5.10;;;4.22;;
40635;SDS011;26642;55.766;37.828;2022-11-20T03:03:12;4.82;;;3.95;;
40635;SDS011;26642;55.766;37.828;2022-11-20T03:05:38;5.10;;;3.40;;
40635;SDS011;26642;55.766;37.828;2022-11-20T03:08:04;4.18;;;3.47;;
40635;SDS011;26642;55.766;37.828;2022-11-20T03:10:30;6.10;;;3.47;;
40635;SDS011;26642;55.766;37.828;2022-11-20T03:12:55;6.18;;;3.75;;
40635;SDS011;26642;55.766;37.828;2022-11-20T03:15:24;6.03;;;3.88;;
40635;SDS011;26642;55.766;37.828;2022-11-20T03:17:53;5.10;;;3.80;;
40635;SDS011;26642;55.766;37.828;2022-11-20T03:20:20;5.68;;;3.45;;
40635;SDS011;26642;55.766;37.828;2022-11-20T03:22:46;5.85;;;4.00;;
40635;SDS011;26642;55.766;37.828;2022-11-20T03:25:12;6.03;;;4.03;;
40635;SDS011;26642;55.766;37.828;2022-11-20T03:27:38;5.90;;;3.80;;
40635;SDS011;26642;55.766;37.828;2022-11-20T03:30:04;5.75;;;3.97;;
40635;SDS011;26642;55.766;37.828;2022-11-20T03:32:30;4.25;;;3.50;;
40635;SDS011;26642;55.766;37.828;2022-11-20T03:34:57;5.70;;;3.70;;
40635;SDS011;26642;55.766;37.828;2022-11-20T03:37:23;4.38;;;3.63;;
40635;SDS011;26642;55.766;37.828;2022-11-20T03:39:49;5.72;;;3.97;;
40635;SDS011;26642;55.766;37.828;2022-11-20T03:42:15;5.03;;;3.67;;
40635;SDS011;26642;55.766;37.828;2022-11-20T03:44:59;5.38;;;3.47;;
40635;SDS011;26642;55.766;37.828;2022-11-20T03:47:25;6.72;;;4.22;;
40635;SDS011;26642;55.766;37.828;2022-11-20T03:49:51;6.07;;;4.10;;
40635;SDS011;26642;55.766;37.828;2022-11-20T03:52:17;6.53;;;4.35;;
40635;SDS011;26642;55.766;37.828;2022-11-20T03:54:43;5.20;;;3.72;;
40635;SDS011;26642;55.766;37.828;2022-11-20T03:57:08;8.20;;;4.93;;
40635;SDS011;26642;55.766;37.828;2022-11-20T03:59:34;6.05;;;4.30;;
40635;SDS011;26642;55.766;37.828;2022-11-20T04:02:00;5.60;;;3.88;;
40635;SDS011;26642;55.766;37.828;2022-11-20T04:04:26;5.68;;;4.25;;
40635;SDS011;26642;55.766;37.828;2022-11-20T04:06:52;6.50;;;3.97;;
40635;SDS011;26642;55.766;37.828;2022-11-20T04:09:18;5.18;;;3.83;;
40635;SDS011;26642;55.766;37.828;2022-11-20T04:11:44;6.10;;;4.55;;
40635;SDS011;26642;55.766;37.828;2022-11-20T04:14:13;5.78;;;4.15;;
40635;SDS011;26642;55.766;37.828;2022-11-20T04:16:40;5.35;;;3.72;;
40635;SDS011;26642;55.766;37.828;2022-11-20T04:19:14;5.18;;;3.78;;
40635;SDS011;26642;55.766;37.828;2022-11-20T04:21:41;4.88;;;3.70;;
40635;SDS011;26642;55.766;37.828;2022-11-20T04:24:07;6.03;;;3.97;;
40635;SDS011;26642;55.766;37.828;2022-11-20T04:26:35;5.72;;;4.13;;
40635;SDS011;26642;55.766;37.828;2022-11-20T04:29:01;5.25;;;3.85;;
40635;SDS011;26642;55.766;37.828;2022-11-20T04:31:28;5.85;;;3.85;;
40635;SDS011;26642;55.766;37.828;2022-11-20T04:33:59;6.45;;;4.57;;
40635;SDS011;26642;55.766;37.828;2022-11-20T04:36:26;5.05;;;3.58;;
40635;SDS011;26642;55.766;37.828;2022-11-20T04:38:54;6.60;;;4.43;;
40635;SDS011;26642;55.766;37.828;2022-11-20T04:41:22;5.32;;;3.95;;
40635;SDS011;26642;55.766;37.828;2022-11-20T04:43:50;6.13;;;3.78;;
40635;SDS011;26642;55.766;37.828;2022-11-20T04:46:18;4.40;;;3.38;;
40635;SDS011;26642;55.766;37.828;2022-11-20T04:48:45;6.97;;;4.68;;
40635;SDS011;26642;55.766;37.828;2022-11-20T04:51:11;5.55;;;3.70;;
40635;SDS011;26642;55.766;37.828;2022-11-20T04:53:37;6.15;;;4.05;;
40635;SDS011;26642;55.766;37.828;2022-11-20T04:56:04;4.95;;;3.80;;
40635;SDS011;26642;55.766;37.828;2022-11-20T04:58:32;4.00;;;3.45;;
40635;SDS011;26642;55.766;37.828;2022-11-20T05:01:02;7.53;;;3.95;;
40635;SDS011;26642;55.766;37.828;2022-11-20T05:03:36;5.82;;;4.32;;
40635;SDS011;26642;55.766;37.828;2022-11-20T05:06:03;7.65;;;4.28;;
40635;SDS011;26642;55.766;37.828;2022-11-20T05:08:30;5.35;;;4.18;;
40635;SDS011;26642;55.766;37.828;2022-11-20T05:11:06;7.25;;;4.70;;
40635;SDS011;26642;55.766;37.828;2022-11-20T05:13:33;6.55;;;4.45;;
40635;SDS011;26642;55.766;37.828;2022-11-20T05:16:03;4.72;;;3.90;;
40635;SDS011;26642;55.766;37.828;2022-11-20T05:18:30;4.97;;;4.43;;
40635;SDS011;26642;55.766;37.828;2022-11-20T05:20:56;5.43;;;4.20;;
40635;SDS011;26642;55.766;37.828;2022-11-20T05:23:23;5.60;;;4.43;;
40635;SDS011;26642;55.766;37.828;2022-11-20T05:25:53;6.82;;;4.60;;
40635;SDS011;26642;55.766;37.828;2022-11-20T05:28:20;6.10;;;4.00;;
40635;SDS011;26642;55.766;37.828;2022-11-20T05:30:46;5.65;;;4.07;;
40635;SDS011;26642;55.766;37.828;2022-11-20T05:33:12;6.43;;;4.45;;
40635;SDS011;26642;55.766;37.828;2022-11-20T05:35:39;6.40;;;4.43;;
40635;SDS011;26642;55.766;37.828;2022-11-20T05:38:05;6.35;;;4.40;;
40635;SDS011;26642;55.766;37.828;2022-11-20T05:40:30;6.32;;;4.60;;
40635;SDS011;26642;55.766;37.828;2022-11-20T05:42:56;5.88;;;4.18;;
40635;SDS011;26642;55.766;37.828;2022-11-20T05:45:22;5.00;;;4.10;;
40635;SDS011;26642;55.766;37.828;2022-11-20T05:47:48;5.30;;;4.20;;
40635;SDS011;26642;55.766;37.828;2022-11-20T05:50:14;6.88;;;4.47;;
40635;SDS011;26642;55.766;37.828;2022-11-20T05:52:40;6.43;;;4.45;;
40635;SDS011;26642;55.766;37.828;2022-11-20T05:55:07;6.38;;;4.38;;
40635;SDS011;26642;55.766;37.828;2022-11-20T05:57:33;6.22;;;4.60;;
40635;SDS011;26642;55.766;37.828;2022-11-20T06:00:00;6.47;;;4.43;;
40635;SDS011;26642;55.766;37.828;2022-11-20T06:02:26;7.18;;;4.78;;
40635;SDS011;26642;55.766;37.828;2022-11-20T06:04:52;6.63;;;4.68;;
40635;SDS011;26642;55.766;37.828;2022-11-20T06:07:18;7.07;;;4.85;;
40635;SDS011;26642;55.766;37.828;2022-11-20T06:09:44;8.43;;;5.20;;
40635;SDS011;26642;55.766;37.828;2022-11-20T06:12:09;7.43;;;4.70;;
40635;SDS011;26642;55.766;37.828;2022-11-20T06:14:35;9.27;;;5.15;;
40635;SDS011;26642;55.766;37.828;2022-11-20T06:17:01;6.90;;;4.72;;
40635;SDS011;26642;55.766;37.828;2022-11-20T06:19:27;9.15;;;5.57;;
40635;SDS011;26642;55.766;37.828;2022-11-20T06:21:53;6.45;;;4.43;;
40635;SDS011;26642;55.766;37.828;2022-11-20T06:24:19;7.05;;;4.80;;
40635;SDS011;26642;55.766;37.828;2022-11-20T06:26:45;6.88;;;4.78;;
40635;SDS011;26642;55.766;37.828;2022-11-20T06:29:11;6.93;;;4.95;;
40635;SDS011;26642;55.766;37.828;2022-11-20T06:31:37;8.40;;;5.20;;
40635;SDS011;26642;55.766;37.828;2022-11-20T06:34:06;6.72;;;4.80;;
40635;SDS011;26642;55.766;37.828;2022-11-20T06:36:33;7.57;;;4.60;;
40635;SDS011;26642;55.766;37.828;2022-11-20T06:38:59;7.20;;;5.45;;
40635;SDS011;26642;55.766;37.828;2022-11-20T06:41:25;7.50;;;5.10;;
40635;SDS011;26642;55.766;37.828;2022-11-20T06:43:51;7.45;;;5.15;;
40635;SDS011;26642;55.766;37.828;2022-11-20T06:46:17;6.72;;;5.13;;
40635;SDS011;26642;55.766;37.828;2022-11-20T06:48:45;7.28;;;4.75;;
40635;SDS011;26642;55.766;37.828;2022-11-20T06:51:12;8.43;;;5.35;;
40635;SDS011;26642;55.766;37.828;2022-11-20T06:53:38;6.05;;;4.57;;
40635;SDS011;26642;55.766;37.828;2022-11-20T06:56:04;7.70;;;5.13;;
40635;SDS011;26642;55.766;37.828;2022-11-20T06:58:32;7.18;;;5.05;;
40635;SDS011;26642;55.766;37.828;2022-11-20T07:00:59;6.10;;;4.35;;
40635;SDS011;26642;55.766;37.828;2022-11-20T07:03:26;8.27;;;5.10;;
40635;SDS011;26642;55.766;37.828;2022-11-20T07:05:56;7.20;;;4.78;;
40635;SDS011;26642;55.766;37.828;2022-11-20T07:08:23;6.65;;;5.05;;
40635;SDS011;26642;55.766;37.828;2022-11-20T07:10:49;7.22;;;5.20;;
40635;SDS011;26642;55.766;37.828;2022-11-20T07:13:15;6.57;;;4.95;;
40635;SDS011;26642;55.766;37.828;2022-11-20T07:15:41;8.25;;;5.47;;
40635;SDS011;26642;55.766;37.828;2022-11-20T07:18:07;9.00;;;5.43;;
40635;SDS011;26642;55.766;37.828;2022-11-20T07:20:33;6.88;;;4.60;;
40635;SDS011;26642;55.766;37.828;2022-11-20T07:22:59;6.60;;;4.70;;
40635;SDS011;26642;55.766;37.828;2022-11-20T07:25:25;8.77;;;5.55;;
40635;SDS011;26642;55.766;37.828;2022-11-20T07:27:53;6.80;;;4.82;;
40635;SDS011;26642;55.766;37.828;2022-11-20T07:30:23;8.20;;;5.32;;
40635;SDS011;26642;55.766;37.828;2022-11-20T07:32:53;8.80;;;5.57;;
40635;SDS011;26642;55.766;37.828;2022-11-20T07:35:20;7.30;;;5.47;;
40635;SDS011;26642;55.766;37.828;2022-11-20T07:37:47;6.43;;;4.97;;
40635;SDS011;26642;55.766;37.828;2022-11-20T07:40:14;9.40;;;5.43;;
40635;SDS011;26642;55.766;37.828;2022-11-20T07:42:50;6.53;;;5.13;;
40635;SDS011;26642;55.766;37.828;2022-11-20T07:45:18;7.32;;;5.18;;
40635;SDS011;26642;55.766;37.828;2022-11-20T07:47:45;8.88;;;5.93;;
40635;SDS011;26642;55.766;37.828;2022-11-20T07:50:11;6.93;;;4.97;;
40635;SDS011;26642;55.766;37.828;2022-11-20T07:52:37;6.97;;;5.50;;
40635;SDS011;26642;55.766;37.828;2022-11-20T07:55:03;7.18;;;5.15;;
40635;SDS011;26642;55.766;37.828;2022-11-20T07:57:30;9.05;;;5.93;;
40635;SDS011;26642;55.766;37.828;2022-11-20T07:59:56;8.98;;;5.72;;
40635;SDS011;26642;55.766;37.828;2022-11-20T08:02:22;8.68;;;6.50;;
40635;SDS011;26642;55.766;37.828;2022-11-20T08:04:48;12.00;;;6.38;;
40635;SDS011;26642;55.766;37.828;2022-11-20T08:07:14;9.27;;;5.85;;
40635;SDS011;26642;55.766;37.828;2022-11-20T08:09:40;8.48;;;5.90;;
40635;SDS011;26642;55.766;37.828;2022-11-20T08:12:06;9.43;;;6.00;;
40635;SDS011;26642;55.766;37.828;2022-11-20T08:14:50;7.53;;;5.13;;
40635;SDS011;26642;55.766;37.828;2022-11-20T08:17:16;8.55;;;5.68;;
40635;SDS011;26642;55.766;37.828;2022-11-20T08:19:42;8.77;;;6.50;;
40635;SDS011;26642;55.766;37.828;2022-11-20T08:22:08;7.88;;;5.68;;
40635;SDS011;26642;55.766;37.828;2022-11-20T08:24:34;7.88;;;5.57;;
40635;SDS011;26642;55.766;37.828;2022-11-20T08:27:00;8.48;;;5.45;;
40635;SDS011;26642;55.766;37.828;2022-11-20T08:29:26;10.88;;;6.03;;
40635;SDS011;26642;55.766;37.828;2022-11-20T08:31:52;8.18;;;6.30;;
40635;SDS011;26642;55.766;37.828;2022-11-20T08:34:18;8.30;;;5.95;;
40635;SDS011;26642;55.766;37.828;2022-11-20T08:36:44;8.98;;;5.85;;
40635;SDS011;26642;55.766;37.828;2022-11-20T08:39:11;8.30;;;5.72;;
40635;SDS011;26642;55.766;37.828;2022-11-20T08:41:37;8.93;;;5.97;;
40635;SDS011;26642;55.766;37.828;2022-11-20T08:44:04;7.60;;;6.03;;
40635;SDS011;26642;55.766;37.828;2022-11-20T08:46:34;9.15;;;6.03;;
40635;SDS011;26642;55.766;37.828;2022-11-20T08:49:07;8.75;;;6.60;;
40635;SDS011;26642;55.766;37.828;2022-11-20T08:51:35;9.85;;;5.95;;
40635;SDS011;26642;55.766;37.828;2022-11-20T08:54:02;9.63;;;6.40;;
40635;SDS011;26642;55.766;37.828;2022-11-20T08:56:28;10.00;;;6.65;;
40635;SDS011;26642;55.766;37.828;2022-11-20T08:58:54;10.25;;;6.38;;
40635;SDS011;26642;55.766;37.828;2022-11-20T09:01:21;11.18;;;7.15;;
40635;SDS011;26642;55.766;37.828;2022-11-20T09:03:48;11.10;;;7.03;;
40635;SDS011;26642;55.766;37.828;2022-11-20T09:06:14;10.23;;;7.32;;
40635;SDS011;26642;55.766;37.828;2022-11-20T09:08:41;11.07;;;7.28;;
40635;SDS011;26642;55.766;37.828;2022-11-20T09:11:07;11.43;;;7.40;;
40635;SDS011;26642;55.766;37.828;2022-11-20T09:13:34;12.30;;;6.93;;
40635;SDS011;26642;55.766;37.828;2022-11-20T09:16:05;8.57;;;6.85;;
40635;SDS011;26642;55.766;37.828;2022-11-20T09:18:33;11.07;;;7.35;;
40635;SDS011;26642;55.766;37.828;2022-11-20T09:21:10;13.73;;;7.57;;
40635;SDS011;26642;55.766;37.828;2022-11-20T09:23:37;12.48;;;7.50;;
40635;SDS011;26642;55.766;37.828;2022-11-20T09:26:08;10.40;;;7.38;;
40635;SDS011;26642;55.766;37.828;2022-11-20T09:28:35;10.35;;;7.07;;
40635;SDS011;26642;55.766;37.828;2022-11-20T09:31:04;13.30;;;7.13;;
40635;SDS011;26642;55.766;37.828;2022-11-20T09:33:35;11.68;;;7.03;;
40635;SDS011;26642;55.766;37.828;2022-11-20T09:36:01;14.80;;;7.60;;
40635;SDS011;26642;55.766;37.828;2022-11-20T09:38:27;12.13;;;7.35;;
40635;SDS011;26642;55.766;37.828;2022-11-20T09:40:56;13.75;;;7.75;;
40635;SDS011;26642;55.766;37.828;2022-11-20T09:43:37;14.93;;;7.65;;
40635;SDS011;26642;55.766;37.828;2022-11-20T09:46:27;12.95;;;8.27;;
40635;SDS011;26642;55.766;37.828;2022-11-20T09:54:58;14.98;;;8.27;;
40635;SDS011;26642;55.766;37.828;2022-11-20T09:57:33;12.98;;;8.38;;
40635;SDS011;26642;55.766;37.828;2022-11-20T10:00:05;14.23;;;7.97;;
40635;SDS011;26642;55.766;37.828;2022-11-20T10:08:13;15.93;;;8.32;;
40635;SDS011;26642;55.766;37.828;2022-11-20T10:10:56;16.70;;;8.52;;
40635;SDS011;26642;55.766;37.828;2022-11-20T10:18:54;16.00;;;9.10;;
40635;SDS011;26642;55.766;37.828;2022-11-20T10:21:30;15.43;;;8.37;;
40635;SDS011;26642;55.766;37.828;2022-11-20T10:27:07;16.15;;;9.07;;
40635;SDS011;26642;55.766;37.828;2022-11-20T10:29:38;18.33;;;9.95;;
40635;SDS011;26642;55.766;37.828;2022-11-20T10:32:14;14.73;;;8.88;;
40635;SDS011;26642;55.766;37.828;2022-11-20T10:34:48;16.30;;;9.60;;
40635;SDS011;26642;55.766;37.828;2022-11-20T10:37:24;16.77;;;8.95;;
40635;SDS011;26642;55.766;37.828;2022-11-20T10:43:00;17.85;;;9.40;;
40635;SDS011;26642;55.766;37.828;2022-11-20T10:50:32;18.92;;;9.20;;
40635;SDS011;26642;55.766;37.828;2022-11-20T10:55:46;16.80;;;10.45;;
40635;SDS011;26642;55.766;37.828;2022-11-20T10:58:29;16.65;;;9.40;;
40635;SDS011;26642;55.766;37.828;2022-11-20T11:01:05;17.50;;;9.50;;
40635;SDS011;26642;55.766;37.828;2022-11-20T11:03:39;16.67;;;9.00;;
40635;SDS011;26642;55.766;37.828;2022-11-20T11:08:53;21.13;;;10.25;;
40635;SDS011;26642;55.766;37.828;2022-11-20T11:11:24;20.15;;;10.95;;
40635;SDS011;26642;55.766;37.828;2022-11-20T11:14:04;15.70;;;9.65;;
40635;SDS011;26642;55.766;37.828;2022-11-20T11:16:34;17.38;;;10.02;;
40635;SDS011;26642;55.766;37.828;2022-11-20T11:19:04;19.30;;;10.02;;
40635;SDS011;26642;55.766;37.828;2022-11-20T11:21:44;14.50;;;9.55;;
40635;SDS011;26642;55.766;37.828;2022-11-20T11:24:26;19.70;;;10.63;;
40635;SDS011;26642;55.766;37.828;2022-11-20T11:26:57;20.48;;;10.65;;
40635;SDS011;26642;55.766;37.828;2022-11-20T11:29:32;21.88;;;11.45;;
40635;SDS011;26642;55.766;37.828;2022-11-20T11:34:44;18.83;;;10.20;;
40635;SDS011;26642;55.766;37.828;2022-11-20T11:37:15;20.52;;;11.07;;
40635;SDS011;26642;55.766;37.828;2022-11-20T11:39:43;25.38;;;11.35;;
40635;SDS011;26642;55.766;37.828;2022-11-20T11:42:12;16.65;;;10.32;;
40635;SDS011;26642;55.766;37.828;2022-11-20T11:44:46;19.80;;;11.02;;
40635;SDS011;26642;55.766;37.828;2022-11-20T12:06:35;17.67;;;10.90;;
40635;SDS011;26642;55.766;37.828;2022-11-20T12:09:05;17.00;;;10.68;;
40635;SDS011;26642;55.766;37.828;2022-11-20T12:14:26;17.80;;;10.30;;
40635;SDS011;26642;55.766;37.828;2022-11-20T12:17:01;18.90;;;11.40;;
40635;SDS011;26642;55.766;37.828;2022-11-20T12:19:29;16.05;;;9.90;;
40635;SDS011;26642;55.766;37.828;2022-11-20T12:25:08;20.00;;;11.13;;
40635;SDS011;26642;55.766;37.828;2022-11-20T12:30:35;18.35;;;11.07;;
40635;SDS011;26642;55.766;37.828;2022-11-20T12:34:13;16.92;;;10.07;;
40635;SDS011;26642;55.766;37.828;2022-11-20T12:36:40;19.95;;;10.80;;
40635;SDS011;26642;55.766;37.828;2022-11-20T12:39:20;15.93;;;10.48;;
40635;SDS011;26642;55.766;37.828;2022-11-20T12:50:48;19.02;;;11.10;;
40635;SDS011;26642;55.766;37.828;2022-11-20T13:01:32;20.55;;;10.77;;
40635;SDS011;26642;55.766;37.828;2022-11-20T13:06:44;18.50;;;11.48;;
40635;SDS011;26642;55.766;37.828;2022-11-20T13:09:12;18.70;;;10.35;;
40635;SDS011;26642;55.766;37.828;2022-11-20T13:11:45;19.52;;;10.52;;
40635;SDS011;26642;55.766;37.828;2022-11-20T13:17:35;17.67;;;11.32;;
40635;SDS011;26642;55.766;37.828;2022-11-20T13:20:16;17.52;;;10.27;;
40635;SDS011;26642;55.766;37.828;2022-11-20T13:25:09;16.05;;;10.40;;
40635;SDS011;26642;55.766;37.828;2022-11-20T13:27:47;17.50;;;10.23;;
40635;SDS011;26642;55.766;37.828;2022-11-20T13:30:15;17.08;;;10.52;;
40635;SDS011;26642;55.766;37.828;2022-11-20T13:35:27;18.30;;;10.30;;
40635;SDS011;26642;55.766;37.828;2022-11-20T13:40:49;18.98;;;10.43;;
40635;SDS011;26642;55.766;37.828;2022-11-20T13:46:05;19.30;;;9.93;;
40635;SDS011;26642;55.766;37.828;2022-11-20T13:48:34;18.98;;;10.02;;
40635;SDS011;26642;55.766;37.828;2022-11-20T13:51:23;20.65;;;11.57;;
40635;SDS011;26642;55.766;37.828;2022-11-20T13:56:47;21.25;;;12.57;;
40635;SDS011;26642;55.766;37.828;2022-11-20T14:02:23;19.23;;;11.38;;
40635;SDS011;26642;55.766;37.828;2022-11-20T14:04:52;19.60;;;11.80;;
40635;SDS011;26642;55.766;37.828;2022-11-20T14:07:23;23.33;;;12.00;;
40635;SDS011;26642;55.766;37.828;2022-11-20T14:10:24;18.73;;;10.93;;
40635;SDS011;26642;55.766;37.828;2022-11-20T14:12:52;24.10;;;11.85;;
40635;SDS011;26642;55.766;37.828;2022-11-20T14:15:25;20.30;;;11.35;;
40635;SDS011;26642;55.766;37.828;2022-11-20T14:17:56;21.75;;;11.57;;
40635;SDS011;26642;55.766;37.828;2022-11-20T14:20:24;18.60;;;10.90;;
40635;SDS011;26642;55.766;37.828;2022-11-20T14:22:53;20.02;;;11.50;;
40635;SDS011;26642;55.766;37.828;2022-11-20T14:25:21;17.92;;;11.40;;
40635;SDS011;26642;55.766;37.828;2022-11-20T14:27:56;18.27;;;11.20;;
40635;SDS011;26642;55.766;37.828;2022-11-20T14:30:24;20.33;;;11.77;;
40635;SDS011;26642;55.766;37.828;2022-11-20T14:32:53;19.85;;;11.35;;
40635;SDS011;26642;55.766;37.828;2022-11-20T14:35:25;20.27;;;11.75;;
40635;SDS011;26642;55.766;37.828;2022-11-20T14:37:53;21.42;;;11.80;;
40635;SDS011;26642;55.766;37.828;2022-11-20T14:43:01;19.75;;;11.40;;
40635;SDS011;26642;55.766;37.828;2022-11-20T14:45:40;20.92;;;10.65;;
40635;SDS011;26642;55.766;37.828;2022-11-20T14:48:08;17.20;;;10.65;;
40635;SDS011;26642;55.766;37.828;2022-11-20T14:50:35;18.83;;;11.15;;
40635;SDS011;26642;55.766;37.828;2022-11-20T14:53:04;21.88;;;12.13;;
40635;SDS011;26642;55.766;37.828;2022-11-20T14:58:19;21.65;;;12.05;;
40635;SDS011;26642;55.766;37.828;2022-11-20T15:00:57;21.15;;;11.95;;
40635;SDS011;26642;55.766;37.828;2022-11-20T15:03:37;21.92;;;11.93;;
40635;SDS011;26642;55.766;37.828;2022-11-20T15:06:04;18.70;;;11.38;;
40635;SDS011;26642;55.766;37.828;2022-11-20T15:08:32;22.08;;;11.82;;
40635;SDS011;26642;55.766;37.828;2022-11-20T15:10:58;21.08;;;10.90;;
40635;SDS011;26642;55.766;37.828;2022-11-20T15:13:25;21.85;;;11.77;;
40635;SDS011;26642;55.766;37.828;2022-11-20T15:15:56;20.13;;;10.88;;
40635;SDS011;26642;55.766;37.828;2022-11-20T15:18:24;21.35;;;11.57;;
40635;SDS011;26642;55.766;37.828;2022-11-20T15:20:52;22.85;;;11.05;;
40635;SDS011;26642;55.766;37.828;2022-11-20T15:23:20;23.58;;;11.98;;
40635;SDS011;26642;55.766;37.828;2022-11-20T15:25:46;26.48;;;12.73;;
40635;SDS011;26642;55.766;37.828;2022-11-20T15:28:33;20.73;;;10.65;;
40635;SDS011;26642;55.766;37.828;2022-11-20T15:31:02;24.23;;;12.73;;
40635;SDS011;26642;55.766;37.828;2022-11-20T15:33:29;17.80;;;10.70;;
40635;SDS011;26642;55.766;37.828;2022-11-20T15:35:56;21.70;;;11.13;;
40635;SDS011;26642;55.766;37.828;2022-11-20T15:38:22;27.25;;;12.30;;
40635;SDS011;26642;55.766;37.828;2022-11-20T15:40:48;23.20;;;11.52;;
40635;SDS011;26642;55.766;37.828;2022-11-20T15:43:14;20.20;;;11.27;;
40635;SDS011;26642;55.766;37.828;2022-11-20T15:48:21;20.38;;;12.18;;
40635;SDS011;26642;55.766;37.828;2022-11-20T15:53:35;22.92;;;12.52;;
40635;SDS011;26642;55.766;37.828;2022-11-20T15:56:05;21.08;;;11.20;;
40635;SDS011;26642;55.766;37.828;2022-11-20T15:58:36;19.80;;;11.43;;
40635;SDS011;26642;55.766;37.828;2022-11-20T16:01:02;24.52;;;12.35;;
40635;SDS011;26642;55.766;37.828;2022-11-20T16:03:28;20.40;;;10.77;;
40635;SDS011;26642;55.766;37.828;2022-11-20T16:05:53;22.98;;;12.48;;
40635;SDS011;26642;55.766;37.828;2022-11-20T16:08:19;27.13;;;11.52;;
40635;SDS011;26642;55.766;37.828;2022-11-20T16:10:45;21.67;;;11.65;;
40635;SDS011;26642;55.766;37.828;2022-11-20T16:13:15;26.65;;;12.10;;
40635;SDS011;26642;55.766;37.828;2022-11-20T16:16:05;25.02;;;11.75;;
40635;SDS011;26642;55.766;37.828;2022-11-20T16:18:35;22.08;;;11.20;;
40635;SDS011;26642;55.766;37.828;2022-11-20T16:21:01;26.83;;;12.63;;
40635;SDS011;26642;55.766;37.828;2022-11-20T16:23:27;23.60;;;11.55;;
40635;SDS011;26642;55.766;37.828;2022-11-20T16:25:54;20.20;;;11.43;;
40635;SDS011;26642;55.766;37.828;2022-11-20T16:28:19;24.65;;;11.38;;
40635;SDS011;26642;55.766;37.828;2022-11-20T16:30:45;22.55;;;11.30;;
40635;SDS011;26642;55.766;37.828;2022-11-20T16:33:12;23.60;;;11.00;;
40635;SDS011;26642;55.766;37.828;2022-11-20T16:35:40;23.02;;;10.88;;
40635;SDS011;26642;55.766;37.828;2022-11-20T16:38:06;19.35;;;10.73;;
40635;SDS011;26642;55.766;37.828;2022-11-20T16:40:32;23.02;;;11.70;;
40635;SDS011;26642;55.766;37.828;2022-11-20T16:43:06;19.35;;;10.55;;